Ocean King — CZ2591 — position and weather

sailwx.info

Track history (hours):
 
Tides and Currents Weather Stations Pressure Air Temp Water Temp Dewpoint Dewpoint Depression Visibility Wind Speed Wind Dir Waves Ship Positions

Ocean King

Last reported at 2015-May-27 05:26 UTC. Time now 2015-May-30 22:38 UTC.
Position N 50°28' W 126°08'.

Length 29 m; draft 4 m.

Type: Fishing. MMSI: 316003514.

Date/timePositionNaut miles runAvg speedWind from/ knotsBaromVisibWave heightAir tempDewpointWater temp
2015-May-27 05:26N 50°28' W 126°08'11 9.7
2015-May-27 04:16N 50°30' W 126°25'8 9.4
2015-May-27 03:27N 50°31' W 126°38'8 9.4
2015-May-27 02:33N 50°38' W 126°45'9 8.6
2015-May-27 01:31N 50°44' W 126°34'6 6.2
2015-May-27 00:33N 50°50' W 126°34'7 3.3
2015-May-26 22:19N 50°51' W 126°46'0 0.0
2015-May-26 15:19N 50°51' W 126°46'4 5.8
2015-May-26 14:33N 50°51' W 126°39'5 4.9
2015-May-26 13:33N 50°47' W 126°35'8 7.7
2015-May-26 12:32N 50°42' W 126°45'10 9.9
2015-May-26 11:32N 50°33' W 126°41'1110.1
2015-May-26 10:25N 50°29' W 126°24'5 0.2
2015-May-25 02:24N 50°29' W 126°16'11 9.5
2015-May-25 01:17N 50°30' W 126°33'7 8.9
2015-May-25 00:29N 50°35' W 126°42'6 6.0
2015-May-24 23:33N 50°40' W 126°40'9 8.5
2015-May-24 22:33N 50°46' W 126°30'9 8.6
2015-May-24 21:33N 50°52' W 126°40'4 1.2
2015-May-24 18:31N 50°51' W 126°46'3 0.8
2015-May-24 14:31N 50°51' W 126°40'7 6.7
2015-May-24 13:29N 50°47' W 126°33'8 8.0
2015-May-24 12:26N 50°44' W 126°45'16 8.3
2015-May-24 10:31N 50°30' W 126°32'13 9.7
2015-May-24 09:09N 50°29' W 126°11'  
Track history (hours):
 
Tides and Currents Weather Stations Pressure Air Temp Water Temp Dewpoint Dewpoint Depression Visibility Wind Speed Wind Dir Waves Ship Positions

Ocean King

Last reported at 2015-May-27 05:26 UTC. Time now 2015-May-30 22:38 UTC.
Position N 50°28' W 126°08'.

Length 29 m; draft 4 m.

Type: Fishing. MMSI: 316003514.

Date/timePositionNaut miles runAvg speedWind from/ knotsBaromVisibWave heightAir tempDewpointWater temp
2015-May-27 05:26N 50°28' W 126°08'11 9.7
2015-May-27 04:16N 50°30' W 126°25'8 9.4
2015-May-27 03:27N 50°31' W 126°38'8 9.4
2015-May-27 02:33N 50°38' W 126°45'9 8.6
2015-May-27 01:31N 50°44' W 126°34'6 6.2
2015-May-27 00:33N 50°50' W 126°34'7 3.3
2015-May-26 22:19N 50°51' W 126°46'0 0.0
2015-May-26 15:19N 50°51' W 126°46'4 5.8
2015-May-26 14:33N 50°51' W 126°39'5 4.9
2015-May-26 13:33N 50°47' W 126°35'8 7.7
2015-May-26 12:32N 50°42' W 126°45'10 9.9
2015-May-26 11:32N 50°33' W 126°41'1110.1
2015-May-26 10:25N 50°29' W 126°24'5 0.2
2015-May-25 02:24N 50°29' W 126°16'11 9.5
2015-May-25 01:17N 50°30' W 126°33'7 8.9
2015-May-25 00:29N 50°35' W 126°42'6 6.0
2015-May-24 23:33N 50°40' W 126°40'9 8.5
2015-May-24 22:33N 50°46' W 126°30'9 8.6
2015-May-24 21:33N 50°52' W 126°40'4 1.2
2015-May-24 18:31N 50°51' W 126°46'3 0.8
2015-May-24 14:31N 50°51' W 126°40'7 6.7
2015-May-24 13:29N 50°47' W 126°33'8 8.0
2015-May-24 12:26N 50°44' W 126°45'16 8.3
2015-May-24 10:31N 50°30' W 126°32'13 9.7
2015-May-24 09:09N 50°29' W 126°11'  

Dump ship's entire track history